createdAt,value
2022-11-24T00:01:28.994Z,23.50
2022-11-24T00:06:36.796Z,23.77
2022-11-24T00:11:42.315Z,25.00
2022-11-24T00:16:47.917Z,23.60
2022-11-24T00:21:53.512Z,23.77
2022-11-24T00:26:58.972Z,22.87
2022-11-24T00:32:06.731Z,24.83
2022-11-24T00:37:12.229Z,24.10
2022-11-24T00:42:18.752Z,23.67
2022-11-24T00:47:24.299Z,22.27
2022-11-24T00:52:29.824Z,25.30
2022-11-24T00:57:36.937Z,26.83
2022-11-24T01:02:42.433Z,25.13
2022-11-24T01:07:47.992Z,23.93
2022-11-24T01:12:53.468Z,23.70
2022-11-24T01:17:58.996Z,25.27
2022-11-24T01:23:04.622Z,25.10
2022-11-24T01:28:10.228Z,23.87
2022-11-24T01:33:15.685Z,25.00
2022-11-24T01:38:21.488Z,25.00
2022-11-24T01:43:26.955Z,24.07
2022-11-24T01:48:35.452Z,24.83
2022-11-24T01:53:43.902Z,25.80
2022-11-24T01:58:52.105Z,25.30
2022-11-24T02:03:58.301Z,24.33
2022-11-24T02:09:24.591Z,25.03
2022-11-24T02:14:31.000Z,24.67
2022-11-24T02:19:45.679Z,24.63
2022-11-24T02:25:03.070Z,24.33
2022-11-24T02:30:09.555Z,24.27
2022-11-24T02:35:15.910Z,23.73
2022-11-24T02:40:26.786Z,23.00
2022-11-24T02:45:32.586Z,23.87
2022-11-24T02:50:38.605Z,21.27
2022-11-24T02:55:44.166Z,22.83
2022-11-24T03:00:50.051Z,21.73
2022-11-24T03:05:55.809Z,21.53
2022-11-24T03:11:02.727Z,23.13
2022-11-24T03:16:10.794Z,25.20
2022-11-24T03:21:16.433Z,23.23
2022-11-24T03:26:25.232Z,24.63
2022-11-24T03:31:30.855Z,24.23
2022-11-24T03:36:36.488Z,24.30
2022-11-24T03:41:41.946Z,23.70
2022-11-24T03:46:47.554Z,23.63
2022-11-24T03:51:53.266Z,23.17
2022-11-24T03:56:58.773Z,24.57
2022-11-24T04:02:04.415Z,25.90
2022-11-24T04:07:10.026Z,24.60
2022-11-24T04:12:33.579Z,25.53
2022-11-24T04:17:39.208Z,26.80
2022-11-24T04:22:45.135Z,27.87
2022-11-24T04:27:55.467Z,27.13
2022-11-24T04:33:01.013Z,25.97
2022-11-24T04:38:06.462Z,30.20
2022-11-24T04:43:12.405Z,27.80
2022-11-24T04:48:17.852Z,29.43
2022-11-24T04:53:24.069Z,26.70
2022-11-24T04:58:29.542Z,26.43
2022-11-24T05:03:39.024Z,27.23
2022-11-24T05:08:44.668Z,27.60
2022-11-24T05:13:50.179Z,28.03
2022-11-24T05:18:55.705Z,28.17
2022-11-24T05:24:01.783Z,26.23
2022-11-24T05:29:08.376Z,27.77
2022-11-24T05:34:14.362Z,27.93
2022-11-24T05:39:20.153Z,26.23
2022-11-24T05:44:25.919Z,28.10
2022-11-24T05:49:31.446Z,30.50
2022-11-24T05:54:37.028Z,30.67
2022-11-24T05:59:42.422Z,28.90
2022-11-24T06:04:47.811Z,28.10
2022-11-24T06:09:53.275Z,26.53
2022-11-24T06:14:58.683Z,27.07
2022-11-24T06:20:04.501Z,27.13
2022-11-24T06:25:10.654Z,27.47
2022-11-24T06:30:16.714Z,25.77
2022-11-24T06:35:22.106Z,26.83
2022-11-24T06:40:27.495Z,29.27
2022-11-24T06:45:33.062Z,28.13
2022-11-24T06:50:39.486Z,26.80
2022-11-24T06:55:46.311Z,29.83
2022-11-24T07:00:52.238Z,28.50
2022-11-24T07:05:59.146Z,27.23
2022-11-24T07:11:09.520Z,28.43
2022-11-24T07:16:26.696Z,28.90
2022-11-24T07:21:32.290Z,28.07
2022-11-24T07:26:37.755Z,27.77
2022-11-24T07:31:43.525Z,26.07
2022-11-24T07:36:50.222Z,26.10
2022-11-24T07:41:55.681Z,27.37
2022-11-24T07:47:01.071Z,27.77
2022-11-24T07:52:08.469Z,27.67
2022-11-24T07:57:13.873Z,26.63
2022-11-24T08:02:19.732Z,27.27
2022-11-24T08:07:25.167Z,28.13
2022-11-24T08:12:30.595Z,28.87
2022-11-24T08:17:36.057Z,29.43
2022-11-24T08:22:42.514Z,25.47
2022-11-24T08:27:47.981Z,26.70
2022-11-24T08:32:53.728Z,27.57
2022-11-24T08:38:04.516Z,26.53
2022-11-24T08:43:07.186Z,26.23
2022-11-24T08:48:12.581Z,27.13
2022-11-24T08:53:19.042Z,26.80
2022-11-24T08:58:24.537Z,25.33
2022-11-24T09:03:29.948Z,24.30
2022-11-24T09:08:35.776Z,24.17
2022-11-24T09:13:42.421Z,23.63
2022-11-24T09:18:49.219Z,22.47
2022-11-24T09:23:56.356Z,25.30
2022-11-24T09:29:04.974Z,23.23
2022-11-24T09:34:13.781Z,22.87
2022-11-24T09:39:19.567Z,21.17
2022-11-24T09:44:50.701Z,22.63
2022-11-24T09:50:05.473Z,22.10
2022-11-24T09:55:31.640Z,20.37
2022-11-24T10:00:38.645Z,21.90
2022-11-24T10:05:46.366Z,21.50
2022-11-24T10:11:07.065Z,19.07
2022-11-24T10:16:15.578Z,22.67
2022-11-24T10:21:24.190Z,22.73
2022-11-24T10:26:41.115Z,20.90
2022-11-24T10:31:48.986Z,22.13
2022-11-24T10:37:33.037Z,22.23
2022-11-24T10:42:38.801Z,23.43
2022-11-24T10:47:45.549Z,23.70
2022-11-24T10:53:04.656Z,23.57
2022-11-24T10:58:17.509Z,24.80
2022-11-24T11:03:25.725Z,22.50
2022-11-24T11:08:33.204Z,22.77
2022-11-24T11:13:38.668Z,23.77
2022-11-24T11:18:47.114Z,24.70
2022-11-24T11:23:54.815Z,25.53
2022-11-24T11:34:23.216Z,22.53
2022-11-24T11:39:37.432Z,24.13
2022-11-24T11:44:49.012Z,23.70
2022-11-24T11:49:54.864Z,24.10
2022-11-24T11:55:12.549Z,26.77
2022-11-24T12:00:22.902Z,26.27
2022-11-24T12:05:43.589Z,26.53
2022-11-24T12:10:52.099Z,24.40
2022-11-24T12:16:00.879Z,21.90
2022-11-24T12:21:36.664Z,22.37
2022-11-24T12:26:54.473Z,24.33
2022-11-24T12:32:02.906Z,21.03
2022-11-24T12:37:14.123Z,23.63
2022-11-24T12:42:38.897Z,22.57
2022-11-24T12:47:55.924Z,22.27
2022-11-24T12:53:06.978Z,22.50
2022-11-24T12:58:21.208Z,22.67
2022-11-24T13:03:32.353Z,22.73
2022-11-24T13:08:39.097Z,21.53
2022-11-24T13:14:02.472Z,21.37
2022-11-24T13:19:25.393Z,21.87
2022-11-24T13:24:35.989Z,24.13
2022-11-24T13:29:43.995Z,22.63
2022-11-24T13:34:55.432Z,23.00
2022-11-24T13:40:05.952Z,22.73
2022-11-24T13:45:14.470Z,23.37
2022-11-24T13:50:25.797Z,23.83
2022-11-24T13:55:40.006Z,22.10
2022-11-24T14:01:03.332Z,22.93
2022-11-24T14:06:11.820Z,22.73
2022-11-24T14:11:19.220Z,23.07
2022-11-24T14:16:26.095Z,23.87
2022-11-24T14:21:37.471Z,23.93
2022-11-24T14:26:43.502Z,22.73
2022-11-24T14:31:57.698Z,21.13
2022-11-24T14:37:03.802Z,22.37
2022-11-24T14:42:24.414Z,22.63
2022-11-24T14:47:38.347Z,21.80
2022-11-24T14:52:57.703Z,19.93
2022-11-24T14:58:03.183Z,21.10
2022-11-24T15:03:17.723Z,20.00
2022-11-24T15:08:25.446Z,22.90
2022-11-24T15:13:33.121Z,22.90
2022-11-24T15:18:44.495Z,21.87
2022-11-24T15:24:19.240Z,21.03
2022-11-24T15:29:24.633Z,21.27
2022-11-24T15:34:30.033Z,23.07
2022-11-24T15:39:35.599Z,20.70
2022-11-24T15:44:42.221Z,18.90
2022-11-24T15:49:49.278Z,18.70
2022-11-24T15:54:57.274Z,18.40
2022-11-24T16:00:02.860Z,17.90
2022-11-24T16:05:12.471Z,18.87
2022-11-24T16:10:29.944Z,19.47
2022-11-24T16:15:35.493Z,18.40
2022-11-24T16:20:41.043Z,20.13
2022-11-24T16:25:46.437Z,17.23
2022-11-24T16:30:52.381Z,17.23
2022-11-24T16:35:57.944Z,19.10
2022-11-24T16:41:03.340Z,18.57
2022-11-24T16:46:19.011Z,19.33
2022-11-24T16:51:29.970Z,17.73
2022-11-24T16:56:33.293Z,19.00
2022-11-24T17:01:40.437Z,18.97
2022-11-24T17:06:46.336Z,19.03
2022-11-24T17:11:51.860Z,17.80
2022-11-24T17:16:57.321Z,17.77
2022-11-24T17:22:02.732Z,17.47
2022-11-24T17:27:08.387Z,17.83
2022-11-24T17:32:13.949Z,17.13
2022-11-24T17:37:19.421Z,19.67
2022-11-24T17:42:24.886Z,18.53
2022-11-24T17:47:30.356Z,18.70
2022-11-24T17:52:35.745Z,18.13
2022-11-24T17:57:41.219Z,18.90
2022-11-24T18:02:46.847Z,17.67
2022-11-24T18:07:52.398Z,17.23
2022-11-24T18:12:58.851Z,17.60
2022-11-24T18:18:04.774Z,17.87
2022-11-24T18:23:10.247Z,18.43
2022-11-24T18:28:15.725Z,15.77
2022-11-24T18:33:21.533Z,16.97
2022-11-24T18:38:28.226Z,17.70
2022-11-24T18:43:36.065Z,16.97
2022-11-24T18:48:42.081Z,18.57
2022-11-24T18:53:49.571Z,19.67
2022-11-24T18:58:56.854Z,18.20
2022-11-24T19:04:03.537Z,18.60
2022-11-24T19:09:11.885Z,16.50
2022-11-24T19:14:19.593Z,15.43
2022-11-24T19:19:25.066Z,14.33
2022-11-24T19:24:30.537Z,14.37
2022-11-24T19:29:40.306Z,15.27
2022-11-24T19:34:43.137Z,15.97
2022-11-24T19:39:48.764Z,14.77
2022-11-24T19:44:56.715Z,16.33
2022-11-24T19:50:06.004Z,16.57
2022-11-24T19:55:09.643Z,15.47
2022-11-24T20:00:16.448Z,17.27
2022-11-24T20:05:21.919Z,16.40
2022-11-24T20:10:27.309Z,14.63
2022-11-24T20:15:34.369Z,15.53
2022-11-24T20:20:39.769Z,16.80
2022-11-24T20:25:45.183Z,16.07
2022-11-24T20:30:50.576Z,15.77
2022-11-24T20:35:56.052Z,14.77
2022-11-24T20:41:09.230Z,15.43
2022-11-24T20:46:17.452Z,15.57
2022-11-24T20:51:26.643Z,15.77
2022-11-24T20:56:35.346Z,15.33
2022-11-24T21:01:43.977Z,20.17
2022-11-24T21:06:49.820Z,17.33
2022-11-24T21:11:55.289Z,19.33
2022-11-24T21:17:00.701Z,17.97
2022-11-24T21:22:06.103Z,18.17
2022-11-24T21:27:11.502Z,17.53
2022-11-24T21:32:16.968Z,17.43
2022-11-24T21:37:22.372Z,15.03
2022-11-24T21:42:27.962Z,16.30
2022-11-24T21:47:33.683Z,15.17
2022-11-24T21:52:39.094Z,16.87
2022-11-24T21:57:44.496Z,18.13
2022-11-24T22:02:50.056Z,18.70
2022-11-24T22:07:55.606Z,15.70
2022-11-24T22:13:01.127Z,16.33
2022-11-24T22:18:06.658Z,15.40
2022-11-24T22:23:12.043Z,22.53
2022-11-24T22:28:17.517Z,16.93
2022-11-24T22:33:22.925Z,16.33
2022-11-24T22:38:29.658Z,15.80
2022-11-24T22:43:36.391Z,16.77
2022-11-24T22:48:42.532Z,15.93
2022-11-24T22:53:53.053Z,15.60
2022-11-24T22:58:59.755Z,15.67
2022-11-24T23:04:05.817Z,14.67
2022-11-24T23:09:13.112Z,16.00
2022-11-24T23:14:18.803Z,15.30
2022-11-24T23:19:24.189Z,14.67
2022-11-24T23:24:30.360Z,14.30
2022-11-24T23:29:35.751Z,16.87
2022-11-24T23:34:41.136Z,15.13
2022-11-24T23:39:46.614Z,16.07
2022-11-24T23:44:51.999Z,16.47
2022-11-24T23:49:57.767Z,15.77
2022-11-24T23:55:03.178Z,19.27
